createdAt,value
2018-09-12T00:00:37.630Z,101194.05
2018-09-12T00:01:41.028Z,101191.62
2018-09-12T00:02:44.418Z,101188.52
2018-09-12T00:03:47.838Z,101190.48
2018-09-12T00:04:51.259Z,101189.91
2018-09-12T00:05:54.680Z,101189.91
2018-09-12T00:06:58.111Z,101192.36
2018-09-12T00:08:01.494Z,101186.83
2018-09-12T00:09:07.784Z,101188.69
2018-09-12T00:10:11.203Z,101194.80
2018-09-12T00:11:14.616Z,101193.07
2018-09-12T00:12:18.020Z,101192.27
2018-09-12T00:13:21.400Z,101185.11
2018-09-12T00:14:24.810Z,101190.06
2018-09-12T00:15:28.190Z,101187.30
2018-09-12T00:16:31.553Z,101191.22
2018-09-12T00:17:34.976Z,101188.69
2018-09-12T00:18:38.385Z,101192.59
2018-09-12T00:19:41.774Z,101183.48
2018-09-12T00:20:45.196Z,101181.53
2018-09-12T00:21:48.621Z,101179.34
2018-09-12T00:22:51.980Z,101182.91
2018-09-12T00:23:55.353Z,101183.15
2018-09-12T00:24:58.788Z,101175.75
2018-09-12T00:26:02.610Z,101177.38
2018-09-12T00:27:06.031Z,101176.91
2018-09-12T00:28:09.432Z,101171.84
2018-09-12T00:29:12.824Z,101168.03
2018-09-12T00:30:16.205Z,101171.03
2018-09-12T00:31:19.608Z,101168.27
2018-09-12T00:32:22.986Z,101166.88
2018-09-12T00:33:26.379Z,101166.06
2018-09-12T00:34:29.766Z,101164.69
2018-09-12T00:35:33.129Z,101164.11
2018-09-12T00:36:36.572Z,101164.92
2018-09-12T00:37:39.968Z,101162.73
2018-09-12T00:38:43.363Z,101164.11
2018-09-12T00:39:46.800Z,101168.27
2018-09-12T00:40:50.264Z,101168.50
2018-09-12T00:41:53.644Z,101168.50
2018-09-12T00:42:57.059Z,101164.69
2018-09-12T00:44:00.462Z,101168.50
2018-09-12T00:45:04.143Z,101166.55
2018-09-12T00:46:07.518Z,101167.92
2018-09-12T00:47:11.033Z,101164.92
2018-09-12T00:48:14.439Z,101162.39
2018-09-12T00:49:17.795Z,101156.62
2018-09-12T00:50:21.197Z,101158.23
2018-09-12T00:51:24.589Z,101158.47
2018-09-12T00:52:27.950Z,101162.86
2018-09-12T00:53:31.362Z,101153.17
2018-09-12T00:54:34.773Z,101155.37
2018-09-12T00:55:38.206Z,101159.28
2018-09-12T00:56:41.591Z,101149.02
2018-09-12T00:57:44.991Z,101165.30
2018-09-12T00:58:48.461Z,101159.52
2018-09-12T00:59:51.850Z,101154.80
2018-09-12T01:00:55.326Z,101158.95
2018-09-12T01:01:58.700Z,101156.52
2018-09-12T01:03:02.949Z,101158.95
2018-09-12T01:04:06.387Z,101150.88
2018-09-12T01:05:10.084Z,101151.11
2018-09-12T01:06:13.494Z,101153.07
2018-09-12T01:07:16.885Z,101150.54
2018-09-12T01:08:20.267Z,101151.34
2018-09-12T01:09:23.658Z,101153.07
2018-09-12T01:10:27.062Z,101150.88
2018-09-12T01:11:30.591Z,101153.88
2018-09-12T01:12:34.161Z,101150.30
2018-09-12T01:13:37.570Z,101155.27
2018-09-12T01:14:40.960Z,101145.58
2018-09-12T01:15:44.374Z,101144.19
2018-09-12T01:16:47.871Z,101144.53
2018-09-12T01:17:51.253Z,101141.77
2018-09-12T01:18:54.673Z,101144.53
2018-09-12T01:19:58.062Z,101146.73
2018-09-12T01:21:01.623Z,101147.30
2018-09-12T01:22:05.018Z,101138.77
2018-09-12T01:23:08.406Z,101140.38
2018-09-12T01:24:11.795Z,101145.11
2018-09-12T01:25:15.176Z,101138.52
2018-09-12T01:26:18.607Z,101139.34
2018-09-12T01:27:21.976Z,101138.52
2018-09-12T01:28:25.360Z,101138.77
2018-09-12T01:29:28.899Z,101130.22
2018-09-12T01:30:32.272Z,101128.84
2018-09-12T01:31:35.703Z,101135.99
2018-09-12T01:32:39.072Z,101137.95
2018-09-12T01:33:42.458Z,101135.42
2018-09-12T01:34:45.898Z,101130.69
2018-09-12T01:35:49.323Z,101134.03
2018-09-12T01:36:52.748Z,101127.69
2018-09-12T01:37:56.139Z,101128.73
2018-09-12T01:38:59.535Z,101122.16
2018-09-12T01:40:03.090Z,101127.34
2018-09-12T01:41:06.584Z,101121.81
2018-09-12T01:42:09.950Z,101123.20
2018-09-12T01:43:13.326Z,101119.62
2018-09-12T01:44:16.682Z,101121.58
2018-09-12T01:45:20.525Z,101124.58
2018-09-12T01:46:23.933Z,101121.24
2018-09-12T01:47:27.290Z,101121.24
2018-09-12T01:48:30.670Z,101123.67
2018-09-12T01:49:34.074Z,101118.47
2018-09-12T01:50:37.498Z,101122.63
2018-09-12T01:51:40.895Z,101123.09
2018-09-12T01:52:44.586Z,101122.86
2018-09-12T01:53:48.011Z,101122.52
2018-09-12T01:54:51.455Z,101120.33
2018-09-12T01:55:54.878Z,101121.37
2018-09-12T01:56:58.258Z,101118.60
2018-09-12T01:58:01.672Z,101116.98
2018-09-12T01:59:05.354Z,101113.06
2018-09-12T02:00:12.527Z,101114.45
2018-09-12T02:01:15.925Z,101118.60
2018-09-12T02:02:19.346Z,101115.26
2018-09-12T02:03:22.709Z,101118.60
2018-09-12T02:04:26.099Z,101118.03
2018-09-12T02:05:29.502Z,101110.51
2018-09-12T02:06:32.918Z,101119.41
2018-09-12T02:07:37.416Z,101119.17
2018-09-12T02:08:40.826Z,101117.22
2018-09-12T02:09:44.220Z,101122.75
2018-09-12T02:10:47.665Z,101114.45
2018-09-12T02:11:51.076Z,101119.41
2018-09-12T02:12:54.453Z,101110.98
2018-09-12T02:13:57.959Z,101121.27
2018-09-12T02:15:01.324Z,101123.56
2018-09-12T02:16:04.760Z,101114.69
2018-09-12T02:17:08.192Z,101117.45
2018-09-12T02:18:11.589Z,101118.27
2018-09-12T02:19:14.994Z,101118.84
2018-09-12T02:20:18.417Z,101118.84
2018-09-12T02:21:21.821Z,101115.50
2018-09-12T02:22:25.251Z,101114.69
2018-09-12T02:23:28.616Z,101110.53
2018-09-12T02:24:32.019Z,101117.69
2018-09-12T02:25:35.413Z,101115.50
2018-09-12T02:26:38.884Z,101110.77
2018-09-12T02:27:42.420Z,101111.34
2018-09-12T02:28:45.828Z,101119.30
2018-09-12T02:29:49.238Z,101117.92
2018-09-12T02:30:52.838Z,101113.30
2018-09-12T02:31:56.246Z,101114.69
2018-09-12T02:32:59.640Z,101109.16
2018-09-12T02:34:03.074Z,101105.80
2018-09-12T02:35:06.573Z,101109.62
2018-09-12T02:36:15.374Z,101101.52
2018-09-12T02:37:18.752Z,101106.31
2018-09-12T02:38:22.152Z,101106.84
2018-09-12T02:39:25.731Z,101109.89
2018-09-12T02:40:29.128Z,101103.20
2018-09-12T02:41:33.215Z,101100.20
2018-09-12T02:42:36.596Z,101101.00
2018-09-12T02:43:40.010Z,101101.58
2018-09-12T02:44:43.378Z,101101.58
2018-09-12T02:45:46.833Z,101096.62
2018-09-12T02:46:50.207Z,101093.27
2018-09-12T02:47:53.627Z,101086.43
2018-09-12T02:48:57.063Z,101091.63
2018-09-12T02:50:00.450Z,101096.05
2018-09-12T02:51:03.907Z,101088.86
2018-09-12T02:52:07.325Z,101093.27
2018-09-12T02:53:10.744Z,101091.89
2018-09-12T02:54:14.195Z,101091.89
2018-09-12T02:55:17.559Z,101092.70
2018-09-12T02:56:20.967Z,101093.51
2018-09-12T02:57:24.368Z,101091.31
2018-09-12T02:58:27.799Z,101096.28
2018-09-12T02:59:31.268Z,101094.89
2018-09-12T03:00:34.691Z,101087.73
2018-09-12T03:01:38.159Z,101091.89
2018-09-12T03:02:41.539Z,101089.12
2018-09-12T03:03:44.913Z,101090.24
2018-09-12T03:04:52.896Z,101087.73
2018-09-12T03:05:56.353Z,101089.70
2018-09-12T03:06:59.972Z,101091.08
2018-09-12T03:08:03.482Z,101085.28
2018-09-12T03:09:07.914Z,101087.81
2018-09-12T03:10:11.400Z,101084.16
2018-09-12T03:11:14.794Z,101084.70
2018-09-12T03:12:18.198Z,101082.78
2018-09-12T03:13:21.579Z,101080.01
2018-09-12T03:14:24.927Z,101087.73
2018-09-12T03:15:28.348Z,101082.20
2018-09-12T03:16:32.252Z,101079.17
2018-09-12T03:17:35.706Z,101080.81
2018-09-12T03:18:39.116Z,101084.97
2018-09-12T03:19:42.547Z,101077.78
2018-09-12T03:20:46.042Z,101085.55
2018-09-12T03:21:49.850Z,101079.17
2018-09-12T03:22:53.244Z,101080.24
2018-09-12T03:23:56.680Z,101083.09
2018-09-12T03:25:00.058Z,101077.78
2018-09-12T03:26:03.569Z,101079.17
2018-09-12T03:27:06.986Z,101076.40
2018-09-12T03:28:10.412Z,101070.97
2018-09-12T03:29:13.804Z,101081.13
2018-09-12T03:30:17.194Z,101074.55
2018-09-12T03:31:20.629Z,101075.93
2018-09-12T03:32:24.037Z,101075.13
2018-09-12T03:33:27.453Z,101074.31
2018-09-12T03:34:31.286Z,101077.08
2018-09-12T03:35:34.722Z,101079.04
2018-09-12T03:36:38.155Z,101075.47
2018-09-12T03:37:41.559Z,101076.84
2018-09-12T03:38:44.965Z,101080.42
2018-09-12T03:39:48.388Z,101071.08
2018-09-12T03:40:51.784Z,101076.38
2018-09-12T03:41:55.208Z,101075.00
2018-09-12T03:42:58.616Z,101075.00
2018-09-12T03:44:02.043Z,101073.38
2018-09-12T03:45:05.608Z,101077.77
2018-09-12T03:46:08.985Z,101066.45
2018-09-12T03:47:12.432Z,101074.52
2018-09-12T03:48:15.834Z,101075.91
2018-09-12T03:49:19.236Z,101073.14
2018-09-12T03:50:22.594Z,101077.30
2018-09-12T03:51:25.999Z,101073.72
2018-09-12T03:52:29.421Z,101073.72
2018-09-12T03:53:32.844Z,101065.18
2018-09-12T03:54:36.260Z,101067.37
2018-09-12T03:55:39.667Z,101070.14
2018-09-12T03:56:43.082Z,101070.14
2018-09-12T03:57:46.561Z,101066.80
2018-09-12T03:58:49.942Z,101071.76
2018-09-12T03:59:53.310Z,101076.48
2018-09-12T04:00:56.689Z,101073.48
2018-09-12T04:02:00.069Z,101079.25
2018-09-12T04:03:03.585Z,101076.83
2018-09-12T04:04:07.029Z,101083.98
2018-09-12T04:05:10.424Z,101082.83
2018-09-12T04:06:13.782Z,101078.44
2018-09-12T04:07:17.166Z,101082.83
2018-09-12T04:08:20.571Z,101084.79
2018-09-12T04:09:23.947Z,101085.36
2018-09-12T04:10:27.360Z,101086.98
2018-09-12T04:11:30.777Z,101089.17
2018-09-12T04:12:34.259Z,101085.83
2018-09-12T04:13:37.658Z,101086.64
2018-09-12T04:14:41.045Z,101088.84
2018-09-12T04:15:44.432Z,101086.88
2018-09-12T04:16:47.842Z,101095.41
2018-09-12T04:17:51.194Z,101088.49
2018-09-12T04:18:54.590Z,101091.27
2018-09-12T04:19:57.999Z,101088.49
2018-09-12T04:21:01.732Z,101095.65
2018-09-12T04:22:05.156Z,101087.80
2018-09-12T04:23:08.590Z,101095.08
2018-09-12T04:24:12.049Z,101090.34
2018-09-12T04:25:15.429Z,101087.58
2018-09-12T04:26:18.835Z,101084.23
2018-09-12T04:27:22.256Z,101087.01
2018-09-12T04:28:25.655Z,101080.66
2018-09-12T04:29:29.100Z,101078.47
2018-09-12T04:30:32.577Z,101074.55
2018-09-12T04:31:35.964Z,101072.59
2018-09-12T04:32:39.387Z,101073.16
2018-09-12T04:33:42.801Z,101067.05
2018-09-12T04:34:46.219Z,101066.24
2018-09-12T04:35:49.601Z,101069.59
2018-09-12T04:36:53.118Z,101070.97
2018-09-12T04:37:56.492Z,101068.78
2018-09-12T04:38:59.916Z,101061.63
2018-09-12T04:40:03.516Z,101062.44
2018-09-12T04:41:07.120Z,101069.02
2018-09-12T04:42:10.545Z,101064.63
2018-09-12T04:43:14.007Z,101064.86
2018-09-12T04:44:17.376Z,101068.67
2018-09-12T04:45:20.978Z,101069.59
2018-09-12T04:46:24.368Z,101061.28
2018-09-12T04:47:27.764Z,101067.63
2018-09-12T04:48:31.387Z,101060.70
2018-09-12T04:49:34.827Z,101067.29
2018-09-12T04:50:38.259Z,101056.22
2018-09-12T04:51:41.651Z,101065.02
2018-09-12T04:52:45.093Z,101064.20
2018-09-12T04:53:48.538Z,101057.52
2018-09-12T04:54:51.923Z,101061.67
2018-09-12T04:55:55.351Z,101061.91
2018-09-12T04:56:58.747Z,101060.19
2018-09-12T04:58:02.187Z,101058.56
2018-09-12T04:59:05.907Z,101066.30
2018-09-12T05:00:09.341Z,101062.14
2018-09-12T05:01:12.770Z,101061.91
2018-09-12T05:02:16.158Z,101066.06
2018-09-12T05:03:19.546Z,101059.72
2018-09-12T05:04:23.016Z,101063.06
2018-09-12T05:05:26.418Z,101063.87
2018-09-12T05:06:29.822Z,101069.41
2018-09-12T05:07:33.259Z,101072.52
2018-09-12T05:08:36.679Z,101073.33
2018-09-12T05:09:40.104Z,101072.52
2018-09-12T05:10:43.555Z,101080.01
2018-09-12T05:11:46.952Z,101076.40
2018-09-12T05:12:50.389Z,101081.39
2018-09-12T05:13:53.782Z,101081.13
2018-09-12T05:14:57.236Z,101076.40
2018-09-12T05:16:00.704Z,101077.78
2018-09-12T05:17:04.110Z,101074.55
2018-09-12T05:18:07.498Z,101069.02
2018-09-12T05:19:10.953Z,101073.16
2018-09-12T05:20:14.369Z,101075.93
2018-09-12T05:21:17.785Z,101077.89
2018-09-12T05:22:21.242Z,101080.66
2018-09-12T05:23:24.664Z,101080.19
2018-09-12T05:24:28.111Z,101080.19
2018-09-12T05:25:31.469Z,101086.53
2018-09-12T05:26:34.873Z,101091.50
2018-09-12T05:27:38.334Z,101088.49
2018-09-12T05:28:41.734Z,101080.19
2018-09-12T05:29:45.145Z,101086.53
2018-09-12T05:30:48.562Z,101087.92
2018-09-12T05:31:51.956Z,101087.92
2018-09-12T05:32:55.389Z,101087.92
2018-09-12T05:33:58.786Z,101083.19
2018-09-12T05:35:02.402Z,101093.69
2018-09-12T05:36:06.137Z,101090.92
2018-09-12T05:37:09.534Z,101086.20
2018-09-12T05:38:12.908Z,101085.05
2018-09-12T05:39:16.313Z,101087.81
2018-09-12T05:40:19.734Z,101083.09
2018-09-12T05:41:23.119Z,101081.47
2018-09-12T05:42:26.571Z,101081.47
2018-09-12T05:43:29.974Z,101079.51
2018-09-12T05:44:33.450Z,101077.78
2018-09-12T05:45:36.900Z,101075.02
2018-09-12T05:46:40.268Z,101083.32
2018-09-12T05:47:43.754Z,101074.47
2018-09-12T05:48:47.222Z,101078.63
2018-09-12T05:49:50.610Z,101082.78
2018-09-12T05:50:54.001Z,101084.70
2018-09-12T05:51:57.407Z,101076.14
2018-09-12T05:53:00.801Z,101083.30
2018-09-12T05:54:04.244Z,101087.69
2018-09-12T05:55:07.717Z,101088.59
2018-09-12T05:56:11.100Z,101090.33
2018-09-12T05:57:14.531Z,101087.90
2018-09-12T05:58:17.910Z,101086.28
2018-09-12T05:59:21.323Z,101084.89
2018-09-12T06:00:24.732Z,101082.07
2018-09-12T06:01:28.122Z,101088.34
2018-09-12T06:02:31.524Z,101091.11
2018-09-12T06:03:35.048Z,101086.38
2018-09-12T06:04:38.526Z,101088.18
2018-09-12T06:05:42.037Z,101092.20
2018-09-12T06:06:45.512Z,101082.72
2018-09-12T06:07:48.875Z,101083.13
2018-09-12T06:08:52.250Z,101082.66
2018-09-12T06:09:55.675Z,101077.56
2018-09-12T06:10:59.102Z,101082.05
2018-09-12T06:12:02.508Z,101080.06
2018-09-12T06:13:05.936Z,101080.48
2018-09-12T06:14:09.458Z,101075.38
2018-09-12T06:15:13.040Z,101081.39
2018-09-12T06:16:16.514Z,101083.92
2018-09-12T06:17:19.909Z,101082.09
2018-09-12T06:18:23.301Z,101083.14
2018-09-12T06:19:26.705Z,101075.98
2018-09-12T06:20:30.070Z,101075.41
2018-09-12T06:21:33.491Z,101080.24
2018-09-12T06:22:37.014Z,101076.27
2018-09-12T06:23:40.876Z,101075.31
2018-09-12T06:24:44.273Z,101076.53
2018-09-12T06:25:47.655Z,101077.41
2018-09-12T06:26:51.029Z,101082.00
2018-09-12T06:27:54.401Z,101078.73
2018-09-12T06:28:57.799Z,101082.73
2018-09-12T06:30:01.273Z,101081.92
2018-09-12T06:31:04.744Z,101084.22
2018-09-12T06:32:08.609Z,101082.84
2018-09-12T06:33:12.730Z,101091.70
2018-09-12T06:34:16.877Z,101091.80
2018-09-12T06:35:20.933Z,101090.28
2018-09-12T06:36:24.569Z,101088.90
2018-09-12T06:37:28.642Z,101090.02
2018-09-12T06:38:32.614Z,101085.96
2018-09-12T06:39:36.314Z,101082.25
2018-09-12T06:40:40.337Z,101092.16
2018-09-12T06:41:43.944Z,101089.40
2018-09-12T06:42:47.396Z,101091.35
2018-09-12T06:43:50.875Z,101083.92
2018-09-12T06:44:54.276Z,101089.59
2018-09-12T06:45:57.662Z,101092.12
2018-09-12T06:47:01.097Z,101093.27
2018-09-12T06:48:04.542Z,101092.52
2018-09-12T06:49:08.503Z,101094.00
2018-09-12T06:50:11.892Z,101094.66
2018-09-12T06:51:15.327Z,101093.38
2018-09-12T06:52:21.320Z,101088.05
2018-09-12T06:53:24.812Z,101097.63
2018-09-12T06:54:28.478Z,101105.34
2018-09-12T06:55:32.203Z,101106.05
2018-09-12T06:56:35.877Z,101111.82
2018-09-12T06:57:39.598Z,101103.39
2018-09-12T06:58:44.054Z,101116.45
2018-09-12T06:59:47.462Z,101108.39
2018-09-12T07:00:51.045Z,101108.58
2018-09-12T07:01:54.448Z,101107.34
2018-09-12T07:02:57.832Z,101109.11
2018-09-12T07:04:01.233Z,101108.87
2018-09-12T07:05:04.888Z,101110.48
2018-09-12T07:06:08.537Z,101104.91
2018-09-12T07:07:11.911Z,101113.02
2018-09-12T07:08:15.300Z,101114.06
2018-09-12T07:09:18.684Z,101107.96
2018-09-12T07:10:22.098Z,101108.47
2018-09-12T07:11:25.522Z,101115.28
2018-09-12T07:12:28.932Z,101105.03
2018-09-12T07:13:32.410Z,101113.33
2018-09-12T07:14:36.204Z,101109.99
2018-09-12T07:15:39.588Z,101107.56
2018-09-12T07:16:42.975Z,101114.71
2018-09-12T07:17:46.368Z,101109.99
2018-09-12T07:18:49.801Z,101110.80
2018-09-12T07:19:53.200Z,101112.19
2018-09-12T07:20:56.592Z,101120.95
2018-09-12T07:21:59.985Z,101115.66
2018-09-12T07:23:03.455Z,101120.05
2018-09-12T07:24:06.944Z,101117.76
2018-09-12T07:25:10.394Z,101121.00
2018-09-12T07:26:13.801Z,101124.91
2018-09-12T07:27:17.223Z,101121.81
2018-09-12T07:28:20.606Z,101122.89
2018-09-12T07:29:24.063Z,101120.36
2018-09-12T07:30:27.519Z,101121.98
2018-09-12T07:31:30.859Z,101123.84
2018-09-12T07:32:34.246Z,101129.17
2018-09-12T07:33:37.660Z,101128.50
2018-09-12T07:34:41.079Z,101131.78
2018-09-12T07:35:44.530Z,101125.73
2018-09-12T07:36:47.899Z,101135.48
2018-09-12T07:37:51.902Z,101132.42
2018-09-12T07:38:55.562Z,101140.38
2018-09-12T07:39:59.038Z,101139.23
2018-09-12T07:41:02.556Z,101132.56
2018-09-12T07:42:06.031Z,101136.95
2018-09-12T07:43:09.600Z,101131.58
2018-09-12T07:44:13.012Z,101137.99
2018-09-12T07:45:16.447Z,101133.61
2018-09-12T07:46:19.844Z,101135.13
2018-09-12T07:47:23.265Z,101135.39
2018-09-12T07:48:26.693Z,101128.21
2018-09-12T07:49:30.232Z,101130.17
2018-09-12T07:50:33.722Z,101126.92
2018-09-12T07:51:37.166Z,101129.93
2018-09-12T07:52:40.556Z,101126.12
2018-09-12T07:53:43.964Z,101127.50
2018-09-12T07:54:47.330Z,101127.03
2018-09-12T07:55:50.764Z,101131.41
2018-09-12T07:56:57.985Z,101120.04
2018-09-12T07:58:02.545Z,101146.16
2018-09-12T07:59:10.133Z,101134.75
2018-09-12T08:00:17.069Z,101135.09
2018-09-12T08:01:23.990Z,101132.09
2018-09-12T08:02:30.664Z,101137.05
2018-09-12T08:03:37.403Z,101132.66
2018-09-12T08:04:44.315Z,101134.05
2018-09-12T08:05:51.526Z,101128.51
2018-09-12T08:06:58.343Z,101134.34
2018-09-12T08:08:05.348Z,101132.42
2018-09-12T08:09:13.524Z,101137.11
2018-09-12T08:10:16.959Z,101132.72
2018-09-12T08:11:20.436Z,101130.77
2018-09-12T08:12:23.851Z,101134.92
2018-09-12T08:13:27.272Z,101127.19
2018-09-12T08:14:30.660Z,101126.95
2018-09-12T08:15:34.118Z,101120.61
2018-09-12T08:16:37.532Z,101122.80
2018-09-12T08:17:40.908Z,101128.91
2018-09-12T08:18:44.319Z,101128.91
2018-09-12T08:19:47.701Z,101126.95
2018-09-12T08:20:51.096Z,101126.38
2018-09-12T08:21:54.565Z,101123.95
2018-09-12T08:22:57.943Z,101127.77
2018-09-12T08:24:01.362Z,101121.83
2018-09-12T08:25:04.905Z,101131.91
2018-09-12T08:26:08.746Z,101122.41
2018-09-12T08:27:12.148Z,101122.74
2018-09-12T08:28:15.506Z,101121.73
2018-09-12T08:29:18.981Z,101122.06
2018-09-12T08:30:22.366Z,101121.50
2018-09-12T08:31:26.044Z,101117.11
2018-09-12T08:32:29.481Z,101112.96
2018-09-12T08:33:33.065Z,101118.49
2018-09-12T08:34:36.499Z,101121.26
2018-09-12T08:35:39.929Z,101121.02
2018-09-12T08:36:43.348Z,101116.88
2018-09-12T08:37:46.806Z,101111.67
2018-09-12T08:38:50.178Z,101116.63
2018-09-12T08:39:53.624Z,101108.91
2018-09-12T08:40:57.048Z,101115.83
2018-09-12T08:42:00.539Z,101112.48
2018-09-12T08:43:03.938Z,101117.20
2018-09-12T08:44:08.068Z,101115.83
2018-09-12T08:45:11.484Z,101117.34
2018-09-12T08:46:14.868Z,101109.79
2018-09-12T08:47:18.335Z,101114.34
2018-09-12T08:48:21.733Z,101121.02
2018-09-12T08:49:25.190Z,101116.06
2018-09-12T08:50:28.598Z,101124.66
2018-09-12T08:51:32.198Z,101129.08
2018-09-12T08:52:35.625Z,101130.47
2018-09-12T08:53:39.042Z,101124.42
2018-09-12T08:54:42.439Z,101127.43
2018-09-12T08:55:46.286Z,101125.81
2018-09-12T08:56:49.729Z,101119.33
2018-09-12T08:57:53.214Z,101134.11
2018-09-12T08:58:56.952Z,101125.23
2018-09-12T09:00:00.337Z,101125.81
2018-09-12T09:01:03.807Z,101127.19
2018-09-12T09:02:07.276Z,101132.48
2018-09-12T09:03:10.685Z,101131.34
2018-09-12T09:04:14.135Z,101130.53
2018-09-12T09:05:17.523Z,101133.06
2018-09-12T09:06:20.952Z,101134.45
2018-09-12T09:07:24.368Z,101131.44
2018-09-12T09:08:27.816Z,101133.63
2018-09-12T09:09:31.372Z,101131.11
2018-09-12T09:10:34.797Z,101133.63
2018-09-12T09:11:38.378Z,101126.48
2018-09-12T09:12:41.800Z,101128.10
2018-09-12T09:13:45.236Z,101122.97
2018-09-12T09:14:48.649Z,101122.57
2018-09-12T09:15:52.048Z,101130.87
2018-09-12T09:16:55.440Z,101125.34
2018-09-12T09:17:58.825Z,101129.48
2018-09-12T09:19:02.505Z,101130.63
2018-09-12T09:20:05.961Z,101136.16
2018-09-12T09:21:09.345Z,101140.55
2018-09-12T09:22:12.733Z,101135.83
2018-09-12T09:23:16.121Z,101134.78
2018-09-12T09:24:19.508Z,101121.36
2018-09-12T09:25:22.908Z,101133.63
2018-09-12T09:26:26.329Z,101133.40
2018-09-12T09:27:29.694Z,101132.02
2018-09-12T09:28:33.109Z,101137.78
2018-09-12T09:29:36.559Z,101136.16
2018-09-12T09:30:39.950Z,101132.02
2018-09-12T09:31:43.349Z,101132.83
2018-09-12T09:32:46.819Z,101128.67
2018-09-12T09:33:50.230Z,101130.63
2018-09-12T09:34:53.675Z,101135.83
2018-09-12T09:35:57.079Z,101133.40
2018-09-12T09:37:00.490Z,101127.87
2018-09-12T09:38:03.963Z,101132.02
2018-09-12T09:39:09.398Z,101133.63
2018-09-12T09:40:12.798Z,101133.40
2018-09-12T09:41:16.190Z,101130.87
2018-09-12T09:42:19.631Z,101132.25
2018-09-12T09:43:23.028Z,101130.06
2018-09-12T09:44:26.422Z,101136.16
2018-09-12T09:45:29.875Z,101127.30
2018-09-12T09:46:33.546Z,101133.63
2018-09-12T09:47:36.994Z,101128.10
2018-09-12T09:48:40.571Z,101126.72
2018-09-12T09:49:44.064Z,101135.02
2018-09-12T09:50:47.482Z,101125.34
2018-09-12T09:51:50.858Z,101124.86
2018-09-12T09:52:54.280Z,101127.36
2018-09-12T09:53:57.705Z,101131.44
2018-09-12T09:55:01.165Z,101129.48
2018-09-12T09:56:04.619Z,101135.25
2018-09-12T09:57:08.733Z,101132.25
2018-09-12T09:58:12.122Z,101140.22
2018-09-12T09:59:15.557Z,101132.48
2018-09-12T10:00:24.146Z,101137.21
2018-09-12T10:01:32.862Z,101132.72
2018-09-12T10:02:41.388Z,101132.72
2018-09-12T10:03:50.165Z,101132.96
2018-09-12T10:04:59.253Z,101138.25
2018-09-12T10:06:08.183Z,101134.11
2018-09-12T10:07:16.759Z,101132.48
2018-09-12T10:08:25.573Z,101135.25
2018-09-12T10:09:33.038Z,101129.15
2018-09-12T10:11:40.175Z,101132.72
2018-09-12T10:12:44.365Z,101131.91
2018-09-12T10:13:48.430Z,101135.48
2018-09-12T10:14:52.726Z,101134.68
2018-09-12T10:15:57.011Z,101132.72
2018-09-12T10:17:01.207Z,101132.48
2018-09-12T10:18:05.608Z,101128.58
2018-09-12T10:19:09.828Z,101135.48
2018-09-12T10:20:14.094Z,101129.95
2018-09-12T10:21:18.758Z,101138.02
2018-09-12T10:22:23.234Z,101134.68
2018-09-12T10:23:27.397Z,101136.88
2018-09-12T10:24:31.632Z,101139.06
2018-09-12T10:25:35.811Z,101139.64
2018-09-12T10:26:39.962Z,101136.88
2018-09-12T10:27:44.205Z,101136.88
2018-09-12T10:29:51.442Z,101137.95
2018-09-12T10:30:55.855Z,101136.88
2018-09-12T10:32:00.006Z,101139.64
2018-09-12T10:33:03.970Z,101139.06
2018-09-12T10:34:08.361Z,101141.02
2018-09-12T10:35:12.526Z,101143.79
2018-09-12T10:36:16.736Z,101139.34
2018-09-12T10:37:21.081Z,101134.34
2018-09-12T10:38:25.189Z,101128.81
2018-09-12T10:39:29.365Z,101131.58
2018-09-12T10:40:33.656Z,101133.53
2018-09-12T10:41:37.905Z,101131.34
2018-09-12T10:42:42.090Z,101130.77
2018-09-12T10:43:46.531Z,101130.77
2018-09-12T10:44:50.745Z,101131.58
2018-09-12T10:45:54.931Z,101137.11
2018-09-12T10:46:59.180Z,101130.47
2018-09-12T10:48:03.259Z,101125.81
2018-09-12T10:49:07.818Z,101135.73
2018-09-12T10:50:12.246Z,101126.89
2018-09-12T10:51:16.392Z,101126.89
2018-09-12T10:52:20.636Z,101125.51
2018-09-12T10:53:24.809Z,101130.20
2018-09-12T10:54:29.099Z,101129.89
2018-09-12T10:55:33.355Z,101131.84
2018-09-12T10:56:37.513Z,101121.02
2018-09-12T10:57:41.711Z,101126.31
2018-09-12T10:58:45.885Z,101120.52
2018-09-12T10:59:50.087Z,101122.16
2018-09-12T11:00:54.601Z,101121.26
2018-09-12T11:01:58.177Z,101119.64
2018-09-12T11:03:01.567Z,101125.17
2018-09-12T11:04:04.950Z,101127.94
2018-09-12T11:05:09.334Z,101125.17
2018-09-12T11:06:13.136Z,101119.88
2018-09-12T11:07:16.498Z,101132.09
2018-09-12T11:08:20.213Z,101129.31
2018-09-12T11:09:23.604Z,101125.98
2018-09-12T11:10:27.255Z,101126.55
2018-09-12T11:11:31.519Z,101127.36
2018-09-12T11:12:35.757Z,101130.94
2018-09-12T11:13:40.028Z,101127.36
2018-09-12T11:14:44.218Z,101129.31
2018-09-12T11:15:48.460Z,101130.36
2018-09-12T11:16:52.635Z,101124.02
2018-09-12T11:17:56.857Z,101128.17
2018-09-12T11:19:01.228Z,101127.03
2018-09-12T11:20:05.508Z,101126.55
2018-09-12T11:21:09.721Z,101130.12
2018-09-12T11:22:13.800Z,101128.17
2018-09-12T11:23:18.049Z,101127.59
2018-09-12T11:24:22.434Z,101124.83
2018-09-12T11:25:26.604Z,101131.17
2018-09-12T11:26:30.796Z,101123.45
2018-09-12T11:27:35.193Z,101122.64
2018-09-12T11:28:39.761Z,101130.50
2018-09-12T11:29:43.249Z,101124.40
2018-09-12T11:30:46.649Z,101108.81
2018-09-12T11:31:50.047Z,101116.34
2018-09-12T11:32:53.434Z,101121.30
2018-09-12T11:33:56.829Z,101117.14
2018-09-12T11:35:00.251Z,101120.75
2018-09-12T11:36:03.650Z,101114.38
2018-09-12T11:37:07.505Z,101114.64
2018-09-12T11:38:10.946Z,101112.69
2018-09-12T11:39:14.382Z,101112.12
2018-09-12T11:40:17.807Z,101112.92
2018-09-12T11:41:21.181Z,101115.70
2018-09-12T11:42:24.598Z,101122.03
2018-09-12T11:43:27.972Z,101117.89
2018-09-12T11:44:31.468Z,101115.12
2018-09-12T11:45:35.016Z,101115.12
2018-09-12T11:46:38.386Z,101109.83
2018-09-12T11:47:41.792Z,101125.04
2018-09-12T11:48:45.355Z,101110.73
2018-09-12T11:49:48.719Z,101113.16
2018-09-12T11:50:52.081Z,101113.97
2018-09-12T11:51:55.468Z,101113.16
2018-09-12T11:52:58.892Z,101110.06
2018-09-12T11:54:02.297Z,101109.83
2018-09-12T11:55:06.074Z,101106.48
2018-09-12T11:56:09.477Z,101113.63
2018-09-12T11:57:12.856Z,101109.25
2018-09-12T11:58:16.272Z,101100.38
2018-09-12T11:59:19.920Z,101112.25
2018-09-12T12:00:23.341Z,101110.87
2018-09-12T12:01:26.759Z,101099.56
2018-09-12T12:02:30.188Z,101104.53
2018-09-12T12:03:33.679Z,101112.25
2018-09-12T12:04:37.116Z,101104.53
2018-09-12T12:05:40.496Z,101107.53
2018-09-12T12:06:43.900Z,101103.38
2018-09-12T12:07:47.325Z,101113.63
2018-09-12T12:08:51.449Z,101113.06